Time;durP1;ratioP1;P1;durP2;ratioP2;P2;SDS_P1;SDS_P2;PMS_P1;PMS_P2;Temp;Humidity;BMP_temperature;BMP_pressure;BME280_temperature;BME280_humidity;BME280_pressure;Samples;Min_cycle;Max_cycle;Signal;HPM_P1;HPM_P2
2023/04/23 00:01:17;;;;;;;11.93;11.23;;;;;;;7.40;89.92;92748.91;5111939;28;20283;-76
2023/04/23 00:03:43;;;;;;;11.93;11.13;;;;;;;7.50;89.29;92760.09;5112511;28;20262;-76
2023/04/23 00:06:10;;;;;;;10.83;10.23;;;;;;;7.03;90.26;92710.13;5111740;28;20870;-76
2023/04/23 00:08:38;;;;;;;11.37;10.60;;;;;;;7.31;91.63;92758.25;5111050;28;20248;-76
2023/04/23 00:11:04;;;;;;;10.83;9.93;;;;;;;7.39;90.46;92735.16;5111396;28;20227;-76
2023/04/23 00:13:30;;;;;;;11.93;11.23;;;;;;;7.40;89.51;92746.31;5112881;28;20210;-76
2023/04/23 00:15:55;;;;;;;12.53;11.30;;;;;;;7.39;89.73;92755.91;5111867;28;20232;-76
2023/04/23 00:18:21;;;;;;;11.07;10.33;;;;;;;7.28;89.73;92746.56;5111957;28;20257;-76
2023/04/23 00:20:46;;;;;;;12.20;11.37;;;;;;;7.31;90.20;92753.84;5112616;28;20243;-76
2023/04/23 00:23:11;;;;;;;11.27;10.57;;;;;;;7.06;91.29;92738.16;5112020;28;20288;-76
2023/04/23 00:25:37;;;;;;;12.20;11.27;;;;;;;7.05;91.47;92736.59;5112020;28;21034;-76
2023/04/23 00:28:02;;;;;;;13.63;10.70;;;;;;;7.03;91.11;92746.47;5110317;28;20817;-76
2023/04/23 00:30:28;;;;;;;12.93;11.77;;;;;;;7.09;91.23;92755.03;5108969;28;20235;-76
2023/04/23 00:32:54;;;;;;;15.97;14.20;;;;;;;7.22;90.21;92757.94;5111574;28;20200;-76
2023/04/23 00:35:19;;;;;;;16.03;12.60;;;;;;;7.02;90.02;92737.09;5111353;28;20224;-76
2023/04/23 00:37:45;;;;;;;13.23;11.93;;;;;;;7.10;90.41;92754.00;5112077;28;20251;-75
2023/04/23 00:40:11;;;;;;;13.73;12.57;;;;;;;7.05;90.83;92743.63;5110492;28;20227;-76
2023/04/23 00:42:38;;;;;;;12.87;11.63;;;;;;;7.11;90.59;92743.38;5109682;28;20184;-76
2023/04/23 00:45:07;;;;;;;12.80;11.63;;;;;;;7.16;90.93;92742.63;5109826;28;20230;-76
2023/04/23 00:47:33;;;;;;;13.10;11.97;;;;;;;7.02;90.88;92731.13;5109476;28;20200;-76
2023/04/23 00:49:59;;;;;;;14.77;13.33;;;;;;;7.10;90.84;92748.81;5111567;28;20326;-75
2023/04/23 00:52:24;;;;;;;18.97;13.87;;;;;;;6.98;91.57;92746.44;5110975;28;20260;-76
2023/04/23 00:54:50;;;;;;;16.43;13.43;;;;;;;7.01;91.00;92740.72;5110757;28;20236;-76
2023/04/23 00:57:16;;;;;;;15.07;13.87;;;;;;;6.98;91.40;92740.44;5112009;28;20195;-76
2023/04/23 00:59:42;;;;;;;13.70;12.60;;;;;;;7.11;91.38;92743.38;5110172;28;20218;-76
2023/04/23 01:02:07;;;;;;;12.50;11.30;;;;;;;7.08;90.52;92751.66;5109949;28;20212;-76
2023/04/23 01:04:36;;;;;;;12.90;11.60;;;;;;;6.97;90.92;92741.50;5111205;28;20218;-76
2023/04/23 01:07:02;;;;;;;13.87;10.53;;;;;;;6.97;91.30;92752.66;5112130;28;20212;-76
2023/04/23 01:09:28;;;;;;;12.80;11.50;;;;;;;6.63;91.45;92699.53;5110348;28;20899;-76
2023/04/23 01:11:56;;;;;;;12.97;12.10;;;;;;;7.03;91.20;92754.25;5111598;28;20191;-76
2023/04/23 01:14:22;;;;;;;11.33;10.33;;;;;;;6.93;90.98;92741.22;5110819;28;20211;-76
2023/04/23 01:16:48;;;;;;;11.57;10.77;;;;;;;7.00;91.45;92749.56;5110140;28;20207;-76
2023/04/23 01:19:14;;;;;;;12.17;11.43;;;;;;;7.10;90.73;92747.00;5111158;28;20192;-76
2023/04/23 01:21:41;;;;;;;11.70;10.97;;;;;;;6.92;91.80;92744.84;5111736;28;20227;-76
2023/04/23 01:24:07;;;;;;;12.63;11.60;;;;;;;6.90;92.30;92744.31;5111084;28;20181;-76
2023/04/23 01:26:33;;;;;;;12.13;11.37;;;;;;;6.99;92.06;92747.22;5109545;28;20291;-73
2023/04/23 01:29:00;;;;;;;11.27;10.47;;;;;;;6.77;92.76;92725.84;5111292;28;20191;-73
2023/04/23 01:31:26;;;;;;;12.00;11.30;;;;;;;6.84;92.88;92745.31;5110095;28;20224;-73
2023/04/23 01:33:54;;;;;;;15.10;13.70;;;;;;;6.79;93.12;92734.91;5110737;28;20191;-73
2023/04/23 01:36:22;;;;;;;45.37;26.20;;;;;;;6.68;94.61;92740.31;5110778;28;20249;-73
2023/04/23 01:38:47;;;;;;;87.23;44.43;;;;;;;6.55;95.08;92750.09;5109192;28;20208;-73
2023/04/23 01:41:13;;;;;;;79.63;40.77;;;;;;;6.75;94.72;92746.84;5109668;28;20239;-73
2023/04/23 01:43:41;;;;;;;51.57;30.00;;;;;;;6.54;95.11;92743.34;5111004;28;20192;-73
2023/04/23 01:46:06;;;;;;;41.97;25.63;;;;;;;6.59;95.01;92745.19;5108879;28;20253;-73
2023/04/23 01:48:32;;;;;;;29.40;19.97;;;;;;;6.41;95.38;92732.63;5111035;28;20203;-73
2023/04/23 01:50:59;;;;;;;36.33;25.50;;;;;;;6.62;94.42;92749.88;5110415;28;20232;-73
2023/04/23 01:53:25;;;;;;;26.50;19.17;;;;;;;6.62;93.75;92739.50;5110036;28;20191;-73
2023/04/23 01:55:51;;;;;;;16.80;15.07;;;;;;;6.54;94.83;92752.94;5109167;28;20227;-73
2023/04/23 01:58:18;;;;;;;13.60;12.30;;;;;;;6.64;93.88;92758.19;5109187;28;20187;-73
2023/04/23 02:00:43;;;;;;;13.17;12.17;;;;;;;6.66;94.33;92760.53;5108871;28;20322;-74
2023/04/23 02:03:09;;;;;;;11.90;10.80;;;;;;;6.48;95.26;92753.94;5109277;28;20228;-80
2023/04/23 02:05:35;;;;;;;12.10;11.10;;;;;;;6.46;95.77;92761.97;5110069;28;20224;-76
2023/04/23 02:08:02;;;;;;;12.73;11.73;;;;;;;6.56;95.95;92756.06;5108596;28;20241;-76
2023/04/23 02:10:28;;;;;;;12.57;11.73;;;;;;;6.71;95.26;92763.94;5107629;28;20258;-76
2023/04/23 02:12:54;;;;;;;13.40;12.37;;;;;;;6.52;95.87;92749.81;5108344;28;20172;-76
2023/04/23 02:15:20;;;;;;;11.93;11.10;;;;;;;6.55;95.87;92754.50;5109057;28;20258;-77
2023/04/23 02:17:45;;;;;;;11.53;10.27;;;;;;;6.59;96.56;92763.34;5109914;28;20210;-77
2023/04/23 02:20:11;;;;;;;12.60;11.60;;;;;;;6.48;96.19;92722.81;5109910;28;20262;-77
2023/04/23 02:22:38;;;;;;;12.03;11.13;;;;;;;6.65;96.43;92757.16;5108997;28;20188;-76
2023/04/23 02:25:06;;;;;;;12.03;11.30;;;;;;;6.29;97.79;92735.41;5108182;28;20271;-76
2023/04/23 02:27:32;;;;;;;12.97;11.83;;;;;;;6.25;99.20;92751.69;5107465;28;20211;-76
2023/04/23 02:29:58;;;;;;;12.40;11.60;;;;;;;6.35;97.88;92736.22;5106850;28;20253;-75
2023/04/23 02:32:23;;;;;;;13.47;12.57;;;;;;;6.26;97.18;92733.31;5108739;28;20744;-76
2023/04/23 02:34:49;;;;;;;12.20;11.40;;;;;;;6.19;97.68;92735.34;5110855;28;20231;-76
2023/04/23 02:37:14;;;;;;;12.73;11.93;;;;;;;6.34;97.49;92752.78;5109518;28;20188;-76
2023/04/23 02:39:40;;;;;;;12.83;11.83;;;;;;;6.09;96.78;92698.19;5108354;28;20203;-76
2023/04/23 02:42:05;;;;;;;13.00;12.20;;;;;;;6.29;96.36;92732.00;5106892;28;20192;-76
2023/04/23 02:44:31;;;;;;;13.03;11.93;;;;;;;6.32;96.27;92750.44;5108904;28;20187;-76
2023/04/23 02:46:56;;;;;;;12.17;11.37;;;;;;;6.34;96.88;92747.63;5108131;28;20269;-76
2023/04/23 02:49:21;;;;;;;13.13;12.17;;;;;;;6.38;96.18;92746.88;5108900;28;20210;-76
2023/04/23 02:51:47;;;;;;;13.70;12.80;;;;;;;6.16;97.39;92755.78;5107010;28;20293;-76
2023/04/23 02:54:13;;;;;;;12.17;11.37;;;;;;;6.17;97.31;92745.16;5106868;28;20196;-76
2023/04/23 02:56:38;;;;;;;12.87;11.90;;;;;;;6.27;96.78;92755.59;5107819;28;20295;-76
2023/04/23 02:59:05;;;;;;;13.13;12.23;;;;;;;6.21;96.59;92750.66;5108943;28;20310;-75
2023/04/23 03:01:30;;;;;;;12.00;11.13;;;;;;;6.28;96.57;92756.38;5108257;28;20254;-76
2023/04/23 03:03:56;;;;;;;12.77;11.97;;;;;;;6.30;96.37;92762.13;5065876;28;1165410;-76
2023/04/23 03:06:21;;;;;;;12.90;12.00;;;;;;;6.20;96.63;92746.47;5110450;28;20314;-76
2023/04/23 03:08:46;;;;;;;12.43;11.67;;;;;;;6.25;97.41;92765.47;5109234;28;20207;-76
2023/04/23 03:11:12;;;;;;;12.77;11.67;;;;;;;6.30;97.23;92768.06;5108539;28;20220;-76
2023/04/23 03:13:37;;;;;;;12.23;11.37;;;;;;;6.12;97.41;92750.31;5108877;28;20206;-76
2023/04/23 03:16:03;;;;;;;11.83;11.13;;;;;;;6.03;98.61;92758.78;5107910;28;20227;-76
2023/04/23 03:18:29;;;;;;;12.57;11.57;;;;;;;6.14;98.29;92768.22;5111158;28;20310;-76
2023/04/23 03:20:54;;;;;;;12.00;11.30;;;;;;;6.11;98.38;92769.50;5108955;28;20699;-76
2023/04/23 03:23:19;;;;;;;12.03;11.33;;;;;;;6.15;97.92;92770.53;5108743;28;20192;-76
2023/04/23 03:25:45;;;;;;;12.37;11.33;;;;;;;6.22;98.15;92770.34;5110320;28;20243;-76
2023/04/23 03:28:10;;;;;;;12.77;11.87;;;;;;;6.07;98.71;92770.22;5108673;28;20279;-76
2023/04/23 03:30:36;;;;;;;13.00;11.87;;;;;;;6.21;98.72;92766.97;5107959;28;20211;-76
2023/04/23 03:33:01;;;;;;;12.63;11.83;;;;;;;6.19;97.95;92756.09;5110321;28;20241;-76
2023/04/23 03:35:27;;;;;;;12.13;11.10;;;;;;;6.33;97.79;92769.41;5107891;28;20259;-75
2023/04/23 03:37:52;;;;;;;13.63;12.63;;;;;;;6.30;97.78;92775.06;5108762;28;20193;-76
2023/04/23 03:40:19;;;;;;;12.17;10.93;;;;;;;6.30;97.87;92775.06;5108688;28;20216;-76
2023/04/23 03:42:44;;;;;;;12.03;11.13;;;;;;;6.33;98.26;92777.16;5107865;28;20218;-76
2023/04/23 03:45:10;;;;;;;12.60;11.67;;;;;;;6.30;97.95;92773.25;5107559;28;20208;-73
2023/04/23 03:47:36;;;;;;;13.10;12.17;;;;;;;6.41;97.92;92771.53;5108252;28;20212;-72
2023/04/23 03:50:01;;;;;;;12.40;11.60;;;;;;;6.38;97.88;92775.38;5114620;28;20227;-72
2023/04/23 03:52:27;;;;;;;13.73;12.23;;;;;;;6.48;97.65;92774.69;5109184;28;20188;-71
2023/04/23 03:54:52;;;;;;;13.17;12.27;;;;;;;6.59;97.16;92776.31;5108932;28;20228;-72
2023/04/23 03:57:18;;;;;;;14.73;13.73;;;;;;;6.67;96.63;92782.84;5108018;28;20773;-72
2023/04/23 03:59:43;;;;;;;12.57;11.40;;;;;;;6.85;96.36;92788.38;5109113;28;20247;-72
2023/04/23 04:02:08;;;;;;;13.93;12.90;;;;;;;7.12;94.69;92794.25;5112126;28;20730;-72
2023/04/23 04:04:35;;;;;;;13.60;12.63;;;;;;;7.40;93.40;92791.25;5114272;27;20207;-72
2023/04/23 04:07:00;;;;;;;14.83;13.43;;;;;;;7.14;94.37;92788.81;5111336;28;20756;-72
2023/04/23 04:09:27;;;;;;;13.90;12.90;;;;;;;7.12;95.03;92790.88;5111087;28;20187;-72
2023/04/23 04:11:53;;;;;;;13.57;12.57;;;;;;;7.32;94.47;92796.94;5110329;28;20192;-73
2023/04/23 04:14:19;;;;;;;12.43;11.63;;;;;;;7.17;95.43;92799.47;5111930;28;20203;-72
2023/04/23 04:16:44;;;;;;;14.80;13.60;;;;;;;7.35;94.75;92795.63;5111577;28;20239;-72
2023/04/23 04:19:09;;;;;;;25.40;16.10;;;;;;;7.51;94.06;92799.88;5111934;28;20187;-73
2023/04/23 04:21:35;;;;;;;25.93;15.87;;;;;;;7.56;93.78;92782.50;5109988;28;20215;-73
2023/04/23 04:24:01;;;;;;;28.67;16.93;;;;;;;7.76;92.41;92792.94;5112216;28;20211;-72
2023/04/23 04:26:28;;;;;;;21.50;17.33;;;;;;;7.83;91.65;92800.47;5111180;28;20255;-72
2023/04/23 04:28:53;;;;;;;19.00;14.80;;;;;;;7.90;91.42;92793.22;5112090;28;20184;-72
2023/04/23 04:31:20;;;;;;;16.13;14.47;;;;;;;8.14;91.56;92795.06;5110577;28;20220;-72
2023/04/23 04:33:46;;;;;;;15.47;14.10;;;;;;;8.26;90.46;92794.06;5109962;28;20210;-72
2023/04/23 04:36:12;;;;;;;15.93;14.53;;;;;;;8.37;90.09;92803.44;5110785;28;20220;-72
2023/04/23 04:38:38;;;;;;;14.90;13.37;;;;;;;8.60;89.88;92805.50;5111144;28;20180;-72
2023/04/23 04:41:04;;;;;;;16.03;14.37;;;;;;;8.77;88.69;92819.81;5112114;28;20228;-72
2023/04/23 04:43:31;;;;;;;15.97;14.60;;;;;;;8.76;88.66;92779.22;5109524;28;20192;-72
2023/04/23 04:45:57;;;;;;;16.40;14.80;;;;;;;8.92;87.62;92798.97;5111855;27;20223;-71
2023/04/23 04:48:23;;;;;;;16.03;14.33;;;;;;;9.15;88.47;92821.84;5112001;28;20204;-71
2023/04/23 04:50:49;;;;;;;16.67;15.23;;;;;;;9.25;88.51;92821.03;5112775;28;20231;-75
2023/04/23 04:53:14;;;;;;;16.43;14.83;;;;;;;9.20;87.38;92797.59;5111080;28;20214;-75
2023/04/23 04:55:40;;;;;;;17.73;16.07;;;;;;;9.27;88.61;92818.94;5112388;28;20222;-76
2023/04/23 04:58:06;;;;;;;16.80;15.30;;;;;;;9.20;87.94;92808.00;5112706;28;20195;-76
2023/04/23 05:00:31;;;;;;;15.73;14.43;;;;;;;9.47;87.69;92832.69;5111668;28;20246;-76
2023/04/23 05:02:57;;;;;;;17.20;15.37;;;;;;;9.65;86.31;92826.09;5111419;28;20224;-75
2023/04/23 05:05:25;;;;;;;17.23;15.27;;;;;;;9.47;86.78;92808.47;5108454;28;20239;-71
2023/04/23 05:07:50;;;;;;;15.17;13.77;;;;;;;9.70;86.44;92813.84;5107625;28;20253;-73
2023/04/23 05:10:16;;;;;;;16.23;14.53;;;;;;;9.55;87.41;92824.34;5108728;28;20237;-70
2023/04/23 05:12:42;;;;;;;19.93;15.53;;;;;;;9.86;85.64;92814.53;5108232;28;20196;-71
2023/04/23 05:15:09;;;;;;;16.47;14.17;;;;;;;9.73;85.87;92789.06;5109574;28;20228;-70
2023/04/23 05:17:35;;;;;;;16.13;14.47;;;;;;;9.80;86.26;92828.66;5108280;28;20191;-70
2023/04/23 05:20:01;;;;;;;15.50;14.20;;;;;;;9.49;87.20;92811.59;5108122;28;20220;-69
2023/04/23 05:22:26;;;;;;;16.07;14.80;;;;;;;9.96;85.15;92826.75;5109733;28;20202;-69
2023/04/23 05:24:52;;;;;;;15.90;14.70;;;;;;;9.80;84.97;92823.44;5108363;28;20220;-70
2023/04/23 05:27:17;;;;;;;17.07;15.57;;;;;;;9.72;86.17;92813.56;5107727;28;21328;-71
2023/04/23 05:29:43;;;;;;;15.73;14.53;;;;;;;9.91;86.28;92822.34;5107248;28;20240;-69
2023/04/23 05:32:08;;;;;;;15.53;14.23;;;;;;;10.00;86.42;92827.75;5109019;28;20246;-71
2023/04/23 05:34:34;;;;;;;14.80;13.70;;;;;;;10.03;85.77;92822.00;5109428;28;20191;-70
2023/04/23 05:36:59;;;;;;;14.20;13.10;;;;;;;10.47;83.45;92835.88;5109078;28;20220;-70
2023/04/23 05:39:25;;;;;;;16.07;14.60;;;;;;;10.93;79.70;92810.94;5108173;28;20259;-69
2023/04/23 05:41:50;;;;;;;15.60;13.97;;;;;;;10.57;80.15;92809.66;5108350;28;20212;-71
2023/04/23 05:44:15;;;;;;;14.30;13.00;;;;;;;10.86;80.32;92823.56;5108343;28;20188;-70
2023/04/23 05:46:41;;;;;;;12.90;11.77;;;;;;;11.50;77.98;92836.25;5108674;28;20228;-70
2023/04/23 05:49:06;;;;;;;14.27;12.60;;;;;;;12.48;73.93;92850.22;5109571;28;20206;-70
2023/04/23 05:51:32;;;;;;;14.43;13.20;;;;;;;12.56;73.93;92857.47;5107658;28;20246;-70
2023/04/23 05:53:57;;;;;;;13.53;12.33;;;;;;;12.25;73.81;92848.47;5109487;28;20407;-69
2023/04/23 05:56:22;;;;;;;13.90;12.87;;;;;;;10.49;81.45;92841.59;5107508;28;20227;-70
2023/04/23 05:58:48;;;;;;;15.07;13.73;;;;;;;10.24;83.05;92826.88;5107953;28;20252;-69
2023/04/23 06:01:13;;;;;;;15.27;13.97;;;;;;;11.71;79.06;92863.75;5110463;28;20231;-71
2023/04/23 06:03:44;;;;;;;15.30;13.90;;;;;;;12.23;75.38;92858.44;5109589;28;20263;-70
2023/04/23 06:06:09;;;;;;;14.10;12.80;;;;;;;11.31;78.27;92847.41;5108883;28;20606;-70
2023/04/23 06:08:35;;;;;;;15.87;14.37;;;;;;;11.90;76.14;92856.75;5107136;28;20218;-70
2023/04/23 06:11:00;;;;;;;14.80;13.53;;;;;;;14.10;68.06;92862.94;5106743;28;21262;-73
2023/04/23 06:13:27;;;;;;;13.47;12.27;;;;;;;12.15;74.87;92864.28;5107739;28;20189;-69
2023/04/23 06:15:52;;;;;;;15.07;13.83;;;;;;;11.61;77.64;92851.53;5109288;28;20224;-68
2023/04/23 06:18:18;;;;;;;14.47;13.27;;;;;;;10.36;81.55;92848.22;5108161;28;20196;-68
2023/04/23 06:20:44;;;;;;;16.40;13.90;;;;;;;10.55;83.63;92843.88;5108167;28;20229;-73
2023/04/23 06:23:11;;;;;;;15.33;14.10;;;;;;;10.85;83.56;92841.03;5108579;28;20191;-73
2023/04/23 06:25:36;;;;;;;15.43;14.17;;;;;;;10.79;84.02;92847.38;5106609;28;20237;-76
2023/04/23 06:28:02;;;;;;;15.73;14.33;;;;;;;12.06;78.96;92856.28;5108184;28;20207;-73
2023/04/23 06:30:27;;;;;;;14.53;13.37;;;;;;;12.32;76.99;92852.28;5108021;28;20250;-75
2023/04/23 06:32:52;;;;;;;14.60;13.37;;;;;;;12.39;76.03;92849.31;5107978;28;20255;-75
2023/04/23 06:35:18;;;;;;;14.17;13.07;;;;;;;12.42;76.54;92846.13;5105893;28;20291;-73
2023/04/23 06:37:43;;;;;;;13.93;12.83;;;;;;;12.40;76.83;92851.66;5108009;28;20201;-71
2023/04/23 06:40:10;;;;;;;15.30;14.00;;;;;;;12.75;76.07;92861.59;5107751;28;20231;-70
2023/04/23 06:42:35;;;;;;;15.20;13.50;;;;;;;12.30;76.36;92830.84;5110208;28;20224;-71
2023/04/23 06:45:03;;;;;;;14.33;13.20;;;;;;;12.66;76.81;92857.28;5107194;28;20219;-70
2023/04/23 06:47:30;;;;;;;14.93;13.27;;;;;;;12.20;78.98;92861.63;5106343;28;20208;-71
2023/04/23 06:49:56;;;;;;;14.67;13.07;;;;;;;12.67;76.97;92864.06;5107699;28;20228;-70
2023/04/23 06:52:21;;;;;;;14.00;12.90;;;;;;;12.34;76.92;92857.25;5108030;28;20259;-69
2023/04/23 06:54:46;;;;;;;15.33;13.93;;;;;;;12.18;78.84;92842.78;5107333;28;20235;-69
2023/04/23 06:57:12;;;;;;;14.47;13.27;;;;;;;12.64;76.86;92851.56;5107577;28;20209;-69
2023/04/23 06:59:37;;;;;;;13.57;12.30;;;;;;;12.50;77.89;92851.50;5107292;28;20198;-69
2023/04/23 07:02:02;;;;;;;15.07;13.83;;;;;;;12.64;75.99;92852.34;5106246;28;20228;-69
2023/04/23 07:04:28;;;;;;;13.37;12.27;;;;;;;12.54;76.13;92856.94;5107592;28;20195;-71
2023/04/23 07:06:53;;;;;;;15.40;13.97;;;;;;;12.44;77.82;92851.84;5106054;28;20669;-71
2023/04/23 07:09:19;;;;;;;16.17;14.17;;;;;;;12.80;75.92;92856.28;5108432;28;20250;-70
2023/04/23 07:11:44;;;;;;;15.00;13.57;;;;;;;12.30;78.43;92851.00;5106718;28;20215;-69
2023/04/23 07:14:10;;;;;;;14.57;13.40;;;;;;;12.02;80.67;92854.50;5107228;28;20178;-70
2023/04/23 07:16:35;;;;;;;15.50;13.80;;;;;;;12.59;78.02;92864.75;5104687;28;20239;-70
2023/04/23 07:19:01;;;;;;;15.17;13.77;;;;;;;12.88;75.77;92863.50;5105954;28;20184;-69
2023/04/23 07:21:28;;;;;;;14.43;13.23;;;;;;;12.56;77.55;92852.97;5106885;28;20254;-70
2023/04/23 07:23:56;;;;;;;17.43;13.30;;;;;;;12.77;76.69;92856.09;5108251;28;20220;-70
2023/04/23 07:26:21;;;;;;;17.17;14.27;;;;;;;12.45;76.97;92856.03;5106222;28;20245;-69
2023/04/23 07:28:47;;;;;;;15.83;14.43;;;;;;;12.89;76.48;92848.56;5107827;28;20184;-69
2023/04/23 07:31:13;;;;;;;15.23;14.03;;;;;;;13.14;74.52;92863.91;5107058;28;20253;-71
2023/04/23 07:33:38;;;;;;;15.20;13.87;;;;;;;13.23;74.24;92849.06;5107228;28;20230;-69
2023/04/23 07:36:04;;;;;;;14.63;13.43;;;;;;;12.94;75.27;92853.72;5103949;28;20290;-70
2023/04/23 07:38:29;;;;;;;14.83;13.43;;;;;;;12.38;78.66;92858.22;5112363;28;20192;-69
2023/04/23 07:40:55;;;;;;;14.80;13.70;;;;;;;12.89;75.58;92859.03;5107139;28;20224;-72
2023/04/23 07:43:20;;;;;;;15.20;13.90;;;;;;;12.89;76.02;92864.28;5109716;28;20202;-67
2023/04/23 07:45:45;;;;;;;15.83;14.60;;;;;;;13.74;72.58;92875.19;5109118;28;20242;-68
2023/04/23 07:48:11;;;;;;;15.50;14.17;;;;;;;13.93;77.08;92862.75;5110970;28;20211;-67
2023/04/23 07:50:36;;;;;;;14.47;13.27;;;;;;;14.11;79.24;92833.75;5110877;28;20291;-69
2023/04/23 07:53:02;;;;;;;15.53;14.20;;;;;;;14.85;68.58;92869.22;5110495;28;20257;-67
2023/04/23 07:55:27;;;;;;;14.70;13.60;;;;;;;14.79;68.86;92872.25;5109913;28;20279;-70
2023/04/23 07:57:53;;;;;;;14.93;13.47;;;;;;;14.43;70.39;92864.38;5112946;28;20188;-69
2023/04/23 08:00:18;;;;;;;14.43;13.07;;;;;;;14.38;70.76;92862.63;5108968;28;20332;-69
2023/04/23 08:02:43;;;;;;;14.90;13.57;;;;;;;15.05;66.80;92873.25;5110339;28;20224;-68
2023/04/23 08:05:09;;;;;;;13.67;12.57;;;;;;;14.76;67.22;92878.09;5110377;28;20723;-69
2023/04/23 08:07:35;;;;;;;14.50;13.03;;;;;;;14.45;67.41;92870.09;5109381;28;20230;-68
2023/04/23 08:10:04;;;;;;;13.97;12.87;;;;;;;14.26;69.03;92864.97;5108127;28;20228;-69
2023/04/23 08:12:32;;;;;;;14.00;13.00;;;;;;;14.18;69.54;92873.53;5107385;28;20188;-69
2023/04/23 08:14:58;;;;;;;16.17;14.50;;;;;;;14.14;69.57;92848.94;5110710;28;20228;-72
2023/04/23 08:17:24;;;;;;;14.57;13.07;;;;;;;13.06;72.38;92827.84;5110321;28;20207;-69
2023/04/23 08:19:49;;;;;;;14.53;13.43;;;;;;;13.71;72.46;92860.78;5109010;28;20227;-71
2023/04/23 08:22:16;;;;;;;13.60;12.50;;;;;;;13.83;71.68;92853.22;5108608;28;20203;-70
2023/04/23 08:24:42;;;;;;;19.10;14.27;;;;;;;13.83;70.32;92866.34;5109958;28;20184;-68
2023/04/23 08:27:08;;;;;;;15.47;12.73;;;;;;;14.39;67.64;92864.19;5107874;28;20212;-67
2023/04/23 08:29:33;;;;;;;14.53;13.20;;;;;;;14.16;68.49;92852.00;5107783;28;20196;-68
2023/04/23 08:31:58;;;;;;;13.17;12.27;;;;;;;14.54;66.96;92862.31;5106575;28;20211;-67
2023/04/23 08:34:24;;;;;;;14.33;13.13;;;;;;;14.54;67.79;92857.81;5109613;28;20194;-67
2023/04/23 08:36:49;;;;;;;15.03;13.63;;;;;;;14.51;67.82;92860.28;5111296;28;20216;-67
2023/04/23 08:39:15;;;;;;;17.83;14.47;;;;;;;14.74;66.60;92856.59;5109839;28;20192;-67
2023/04/23 08:41:41;;;;;;;14.33;13.20;;;;;;;14.42;65.94;92847.06;5110199;28;20219;-67
2023/04/23 08:44:16;;;;;;;15.00;13.80;;;;;;;14.55;66.75;92851.50;5110194;28;20676;-66
2023/04/23 08:46:43;;;;;;;14.67;13.53;;;;;;;14.83;64.19;92854.81;5109929;28;20219;-68
2023/04/23 08:49:14;;;;;;;14.83;13.63;;;;;;;14.96;63.14;92848.75;5109937;28;20184;-68
2023/04/23 08:51:45;;;;;;;15.57;14.10;;;;;;;15.41;63.90;92850.28;5105888;28;20318;-68
2023/04/23 08:54:17;;;;;;;17.60;13.27;;;;;;;15.27;62.51;92844.31;5109964;28;20227;-69
2023/04/23 08:56:44;;;;;;;14.60;13.40;;;;;;;15.42;62.22;92847.34;5109470;28;20988;-69
2023/04/23 08:59:10;;;;;;;14.07;12.87;;;;;;;15.52;62.97;92843.66;5109795;28;20188;-69
2023/04/23 09:01:36;;;;;;;15.17;13.67;;;;;;;14.92;64.44;92837.25;5109024;28;20219;-69
2023/04/23 09:04:01;;;;;;;15.03;13.90;;;;;;;14.95;64.41;92847.16;5110115;28;20192;-68
2023/04/23 09:06:30;;;;;;;15.07;13.50;;;;;;;14.87;64.92;92837.38;5108600;28;20238;-69
2023/04/23 09:08:58;;;;;;;14.00;12.73;;;;;;;15.14;62.94;92845.13;5109267;28;20198;-69
2023/04/23 09:11:26;;;;;;;14.57;13.30;;;;;;;15.18;63.79;92840.81;5108604;28;20246;-66
2023/04/23 09:13:51;;;;;;;14.33;13.17;;;;;;;14.96;62.70;92838.97;5105455;28;20184;-67
2023/04/23 09:16:16;;;;;;;13.63;12.53;;;;;;;15.10;63.95;92838.91;5107739;28;20234;-67
2023/04/23 09:18:42;;;;;;;16.20;14.90;;;;;;;15.27;62.14;92844.31;5110087;28;20188;-67
2023/04/23 09:21:09;;;;;;;14.03;12.70;;;;;;;15.60;60.53;92840.31;5108540;28;20246;-68
2023/04/23 09:23:38;;;;;;;13.23;12.33;;;;;;;15.81;60.14;92833.44;5107759;28;20244;-69
2023/04/23 09:26:06;;;;;;;15.93;14.37;;;;;;;16.07;60.86;92842.19;5107241;28;20224;-69
2023/04/23 09:28:36;;;;;;;15.97;14.47;;;;;;;16.17;59.35;92838.50;5108534;28;20224;-67
2023/04/23 09:31:05;;;;;;;13.27;12.20;;;;;;;16.02;59.17;92826.53;5107166;28;20287;-68
2023/04/23 09:33:33;;;;;;;16.50;15.07;;;;;;;16.09;59.35;92837.41;5107847;28;20213;-71
2023/04/23 09:36:04;;;;;;;13.63;12.53;;;;;;;16.03;57.63;92836.00;5122543;28;20212;-70
2023/04/23 09:38:32;;;;;;;15.73;14.23;;;;;;;15.84;58.75;92833.59;5107943;28;20258;-71
2023/04/23 09:40:58;;;;;;;13.60;12.47;;;;;;;15.81;59.43;92815.78;5108501;28;20258;-68
2023/04/23 09:43:28;;;;;;;13.23;12.23;;;;;;;15.47;60.29;92817.50;5108282;28;20188;-69
2023/04/23 09:45:54;;;;;;;14.90;13.63;;;;;;;15.37;61.82;92812.47;5106901;28;20231;-68
2023/04/23 09:48:20;;;;;;;41.27;30.07;;;;;;;16.20;57.79;92819.44;5108067;28;20216;-67
2023/04/23 09:50:46;;;;;;;15.57;14.27;;;;;;;16.66;54.90;92822.31;5109406;28;20303;-75
2023/04/23 09:53:13;;;;;;;14.37;13.00;;;;;;;16.91;54.06;92809.13;5107432;28;20184;-67
2023/04/23 09:55:40;;;;;;;14.03;12.70;;;;;;;16.69;58.52;92804.03;5106317;28;20244;-68
2023/04/23 09:58:10;;;;;;;15.07;13.73;;;;;;;16.56;55.51;92818.13;5109325;28;20188;-69
2023/04/23 10:00:38;;;;;;;15.17;13.77;;;;;;;16.69;55.68;92800.59;5106045;28;20215;-69
2023/04/23 10:03:06;;;;;;;13.37;12.27;;;;;;;16.88;54.50;92804.47;5108906;28;20220;-69
2023/04/23 10:05:31;;;;;;;14.70;13.10;;;;;;;16.53;55.41;92787.09;5105996;28;20236;-69
2023/04/23 10:07:57;;;;;;;13.63;12.63;;;;;;;16.62;54.64;92806.38;5108128;28;20227;-68
2023/04/23 10:10:24;;;;;;;13.80;12.83;;;;;;;16.39;53.11;92775.91;5105625;28;20212;-68
2023/04/23 10:12:52;;;;;;;15.00;13.37;;;;;;;15.91;56.59;92793.66;5107865;28;20211;-68
2023/04/23 10:15:17;;;;;;;13.67;12.57;;;;;;;16.20;56.76;92795.75;5106833;28;20215;-68
2023/04/23 10:17:45;;;;;;;13.00;12.10;;;;;;;16.30;57.81;92793.56;5108348;28;20195;-68
2023/04/23 10:20:11;;;;;;;13.77;12.73;;;;;;;16.29;54.76;92784.13;5106930;28;20224;-68
2023/04/23 10:22:38;;;;;;;13.50;12.30;;;;;;;16.11;54.34;92790.44;5106346;28;20188;-68
2023/04/23 10:25:08;;;;;;;13.60;12.40;;;;;;;16.33;53.34;92779.78;5105299;28;20212;-67
2023/04/23 10:27:37;;;;;;;12.70;11.60;;;;;;;16.76;51.73;92785.84;5109453;28;20271;-68
2023/04/23 10:30:04;;;;;;;12.73;11.83;;;;;;;16.38;54.66;92777.00;5108634;28;20224;-68
2023/04/23 10:32:32;;;;;;;14.20;13.10;;;;;;;16.31;54.87;92760.88;5107590;28;20222;-72
2023/04/23 10:34:57;;;;;;;13.53;12.23;;;;;;;16.72;52.74;92769.13;5106695;28;20240;-73
2023/04/23 10:37:23;;;;;;;14.70;13.70;;;;;;;16.38;51.87;92769.09;5106564;28;20200;-73
2023/04/23 10:39:54;;;;;;;13.87;12.50;;;;;;;16.39;52.63;92756.72;5107416;28;20216;-72
2023/04/23 10:42:20;;;;;;;12.97;12.03;;;;;;;16.99;51.85;92757.44;5108120;28;20181;-73
2023/04/23 10:44:46;;;;;;;12.83;11.73;;;;;;;16.82;51.69;92747.72;5108782;28;20223;-74
2023/04/23 10:47:16;;;;;;;13.03;12.03;;;;;;;16.89;51.24;92757.75;5109667;28;20235;-74
2023/04/23 10:49:42;;;;;;;13.27;11.93;;;;;;;16.74;50.72;92748.50;5108602;28;20188;-71
2023/04/23 10:52:14;;;;;;;15.20;14.00;;;;;;;16.71;51.11;92761.53;5108179;28;20214;-70
2023/04/23 10:54:41;;;;;;;13.43;12.33;;;;;;;16.58;50.03;92754.53;5108387;28;20812;-68
2023/04/23 10:57:08;;;;;;;12.27;11.33;;;;;;;16.59;51.26;92740.28;5108673;28;20195;-71
2023/04/23 10:59:50;;;;;;;13.73;12.73;;;;;;;16.58;51.59;92747.41;5107990;28;20188;-70
2023/04/23 11:02:16;;;;;;;14.37;11.73;;;;;;;16.23;51.24;92748.50;5108353;28;20291;-69
2023/04/23 11:04:52;;;;;;;13.00;11.87;;;;;;;16.32;52.58;92749.25;5105736;28;20288;-69
2023/04/23 11:07:18;;;;;;;14.27;12.93;;;;;;;16.70;50.68;92747.56;5108026;28;20215;-70
2023/04/23 11:09:47;;;;;;;13.67;12.43;;;;;;;16.88;48.45;92741.19;5106383;28;20228;-70
2023/04/23 11:12:32;;;;;;;13.20;12.03;;;;;;;16.79;47.33;92740.44;5111154;28;20259;-69
2023/04/23 11:15:08;;;;;;;13.23;12.27;;;;;;;16.84;47.96;92740.25;5112329;28;20241;-68
2023/04/23 11:17:33;;;;;;;13.33;12.27;;;;;;;16.93;48.54;92735.75;5111411;28;20210;-68